createdAt,value
2018-06-24T00:00:08.388Z,13.10
2018-06-24T00:02:36.924Z,13.10
2018-06-24T00:07:33.709Z,13.10
2018-06-24T00:10:02.210Z,13.10
2018-06-24T00:12:30.840Z,13.10
2018-06-24T00:14:59.349Z,13.10
2018-06-24T00:19:57.502Z,13.10
2018-06-24T00:22:26.076Z,13.10
2018-06-24T00:24:54.623Z,13.10
2018-06-24T00:29:51.351Z,13.00
2018-06-24T00:32:19.875Z,13.10
2018-06-24T00:37:16.680Z,13.00
2018-06-24T00:39:45.186Z,13.00
2018-06-24T00:42:13.772Z,13.00
2018-06-24T00:44:42.378Z,13.00
2018-06-24T00:47:10.968Z,13.00
2018-06-24T00:49:39.639Z,13.00
2018-06-24T00:52:08.299Z,13.10
2018-06-24T00:54:37.617Z,13.00
2018-06-24T00:57:06.212Z,13.00
2018-06-24T00:59:46.116Z,13.10
2018-06-24T01:02:15.119Z,13.00
2018-06-24T01:04:43.733Z,13.10
2018-06-24T01:07:13.998Z,13.10
2018-06-24T01:09:42.520Z,13.10
2018-06-24T01:14:39.364Z,13.00
2018-06-24T01:17:08.009Z,13.00
2018-06-24T01:19:36.527Z,13.00
2018-06-24T01:22:05.138Z,13.00
2018-06-24T01:24:33.738Z,13.00
2018-06-24T01:29:30.900Z,13.00
2018-06-24T01:34:27.622Z,13.00
2018-06-24T01:36:56.246Z,13.00
2018-06-24T01:39:24.791Z,12.90
2018-06-24T01:41:53.316Z,12.90
2018-06-24T01:44:21.827Z,12.90
2018-06-24T01:49:18.835Z,12.90
2018-06-24T01:51:47.416Z,12.80
2018-06-24T01:54:15.927Z,12.80
2018-06-24T01:56:44.499Z,12.80
2018-06-24T01:59:13.007Z,12.80
2018-06-24T02:01:41.522Z,12.70
2018-06-24T02:04:09.992Z,12.70
2018-06-24T02:06:38.473Z,12.70
2018-06-24T02:09:09.174Z,12.70
2018-06-24T02:11:37.694Z,12.70
2018-06-24T02:14:06.193Z,12.70
2018-06-24T02:16:34.644Z,12.60
2018-06-24T02:19:03.130Z,12.60
2018-06-24T02:21:31.804Z,12.60
2018-06-24T02:24:00.253Z,12.60
2018-06-24T02:26:28.724Z,12.60
2018-06-24T02:28:57.291Z,12.60
2018-06-24T02:31:25.925Z,12.50
2018-06-24T02:33:54.454Z,12.50
2018-06-24T02:36:22.880Z,12.50
2018-06-24T02:38:51.349Z,12.50
2018-06-24T02:41:19.788Z,12.50
2018-06-24T02:43:48.263Z,12.50
2018-06-24T02:46:16.694Z,12.50
2018-06-24T02:48:45.276Z,12.50
2018-06-24T02:51:14.145Z,12.50
2018-06-24T02:53:42.702Z,12.50
2018-06-24T03:01:07.518Z,12.50
2018-06-24T03:03:36.026Z,12.50
2018-06-24T03:08:32.606Z,12.50
2018-06-24T03:11:01.085Z,12.50
2018-06-24T03:13:29.508Z,12.50
2018-06-24T03:15:58.007Z,12.50
2018-06-24T03:18:26.489Z,12.50
2018-06-24T03:20:55.821Z,12.50
2018-06-24T03:23:24.257Z,12.50
2018-06-24T03:25:52.714Z,12.50
2018-06-24T03:28:21.195Z,12.50
2018-06-24T03:33:17.906Z,12.50
2018-06-24T03:35:46.393Z,12.50
2018-06-24T03:38:14.844Z,12.50
2018-06-24T03:40:43.367Z,12.50
2018-06-24T03:43:11.819Z,12.60
2018-06-24T03:45:40.322Z,12.50
2018-06-24T03:48:08.909Z,12.50
2018-06-24T03:50:37.413Z,12.60
2018-06-24T03:53:06.184Z,12.60
2018-06-24T03:55:34.702Z,12.60
2018-06-24T03:58:03.362Z,12.60
2018-06-24T04:00:31.870Z,12.60
2018-06-24T04:03:00.378Z,12.60
2018-06-24T04:05:28.989Z,12.60
2018-06-24T04:07:57.499Z,12.60
2018-06-24T04:10:25.995Z,12.70
2018-06-24T04:12:54.474Z,12.60
2018-06-24T04:15:22.905Z,12.60
2018-06-24T04:17:51.405Z,12.60
2018-06-24T04:22:48.082Z,12.70
2018-06-24T04:25:16.531Z,12.70
2018-06-24T04:27:45.002Z,12.70
2018-06-24T04:30:13.460Z,12.70
2018-06-24T04:32:41.958Z,12.70
2018-06-24T04:35:10.463Z,12.70
2018-06-24T04:37:39.018Z,12.70
2018-06-24T04:40:07.530Z,12.70
2018-06-24T04:42:36.004Z,12.70
2018-06-24T04:45:04.768Z,12.70
2018-06-24T04:47:33.245Z,12.70
2018-06-24T04:52:30.013Z,12.70
2018-06-24T04:54:58.469Z,12.70
2018-06-24T04:57:26.964Z,12.70
2018-06-24T04:59:55.479Z,12.60
2018-06-24T05:02:24.169Z,12.60
2018-06-24T05:04:52.685Z,12.70
2018-06-24T05:07:21.154Z,12.70
2018-06-24T05:09:49.618Z,12.70
2018-06-24T05:14:46.489Z,12.80
2018-06-24T05:17:14.981Z,12.80
2018-06-24T05:19:43.552Z,12.80
2018-06-24T05:22:12.083Z,12.80
2018-06-24T05:24:41.475Z,12.80
2018-06-24T05:27:09.939Z,12.90
2018-06-24T05:29:38.516Z,12.90
2018-06-24T05:34:35.457Z,12.90
2018-06-24T05:37:03.978Z,12.90
2018-06-24T05:42:00.706Z,13.00
2018-06-24T05:44:29.252Z,13.00
2018-06-24T05:46:58.653Z,13.10
2018-06-24T05:49:27.213Z,13.10
2018-06-24T05:51:55.677Z,13.20
2018-06-24T05:54:24.198Z,13.20
2018-06-24T05:56:52.706Z,13.20
2018-06-24T06:01:49.371Z,13.30
2018-06-24T06:04:18.151Z,13.30
2018-06-24T06:06:46.688Z,13.30
2018-06-24T06:09:15.194Z,13.30
2018-06-24T06:11:43.924Z,13.40
2018-06-24T06:14:12.391Z,13.40
2018-06-24T06:16:40.887Z,13.40
2018-06-24T06:19:09.864Z,13.40
2018-06-24T06:21:38.411Z,13.40
2018-06-24T06:24:06.907Z,13.30
2018-06-24T06:26:35.387Z,13.40
2018-06-24T06:29:03.898Z,13.40
2018-06-24T06:31:32.411Z,13.40
2018-06-24T06:36:29.096Z,13.40
2018-06-24T06:38:58.708Z,13.40
2018-06-24T06:41:27.288Z,13.40
2018-06-24T06:43:56.261Z,13.50
2018-06-24T06:46:24.768Z,13.60
2018-06-24T06:48:53.517Z,13.60
2018-06-24T06:51:21.982Z,13.60
2018-06-24T06:53:50.494Z,13.60
2018-06-24T06:56:18.995Z,13.70
2018-06-24T06:58:47.544Z,13.80
2018-06-24T07:01:16.014Z,13.90
2018-06-24T07:03:44.530Z,14.00
2018-06-24T07:06:13.007Z,14.10
2018-06-24T07:08:41.694Z,14.10
2018-06-24T07:11:10.146Z,14.10
2018-06-24T07:13:38.721Z,14.10
2018-06-24T07:16:07.239Z,14.10
2018-06-24T07:18:36.147Z,14.10
2018-06-24T07:21:04.657Z,14.00
2018-06-24T07:23:33.195Z,14.00
2018-06-24T07:26:01.695Z,14.00
2018-06-24T07:28:30.212Z,14.00
2018-06-24T07:30:58.701Z,14.00
2018-06-24T07:33:27.390Z,14.00
2018-06-24T07:35:55.912Z,13.90
2018-06-24T07:38:24.493Z,13.80
2018-06-24T07:43:21.201Z,13.80
2018-06-24T07:45:49.718Z,13.80
2018-06-24T07:48:18.313Z,13.70
2018-06-24T07:50:46.774Z,13.70
2018-06-24T07:53:15.210Z,13.70
2018-06-24T07:55:43.642Z,13.70
2018-06-24T07:58:12.151Z,13.70
2018-06-24T08:00:40.565Z,13.80
2018-06-24T08:03:09.084Z,13.90
2018-06-24T08:05:37.598Z,13.90
2018-06-24T08:08:06.062Z,14.00
2018-06-24T08:10:34.524Z,14.00
2018-06-24T08:13:03.143Z,14.10
2018-06-24T08:15:31.867Z,14.10
2018-06-24T08:20:28.492Z,14.00
2018-06-24T08:22:57.059Z,14.00
2018-06-24T08:25:26.058Z,14.00
2018-06-24T08:27:54.526Z,14.00
2018-06-24T08:30:23.039Z,14.00
2018-06-24T08:32:51.618Z,14.10
2018-06-24T08:35:20.123Z,14.20
2018-06-24T08:37:48.660Z,14.30
2018-06-24T08:40:17.132Z,14.50
2018-06-24T08:42:45.680Z,14.60
2018-06-24T08:45:14.270Z,14.70
2018-06-24T08:47:42.822Z,14.70
2018-06-24T08:50:11.342Z,14.80
2018-06-24T08:52:39.899Z,14.80
2018-06-24T08:55:08.498Z,14.80
2018-06-24T08:57:37.145Z,14.90
2018-06-24T09:00:05.627Z,14.80
2018-06-24T09:02:34.161Z,14.80
2018-06-24T09:05:02.625Z,14.80
2018-06-24T09:07:31.193Z,14.80
2018-06-24T09:14:56.080Z,15.20
2018-06-24T09:17:24.588Z,15.40
2018-06-24T09:19:53.154Z,15.50
2018-06-24T09:22:21.744Z,15.60
2018-06-24T09:24:50.198Z,15.60
2018-06-24T09:29:46.913Z,15.70
2018-06-24T09:32:15.505Z,15.70
2018-06-24T09:34:43.976Z,15.60
2018-06-24T09:37:12.506Z,15.50
2018-06-24T09:39:41.022Z,15.40
2018-06-24T09:42:09.549Z,15.40
2018-06-24T09:44:38.073Z,15.40
2018-06-24T09:47:06.680Z,15.50
2018-06-24T09:49:35.282Z,15.70
2018-06-24T09:52:03.896Z,15.80
2018-06-24T09:54:32.356Z,15.90
2018-06-24T09:57:01.251Z,16.00
2018-06-24T09:59:29.753Z,15.90
2018-06-24T10:01:59.111Z,15.90
2018-06-24T10:06:55.986Z,15.60
2018-06-24T10:11:52.667Z,15.40
2018-06-24T10:14:21.167Z,15.40
2018-06-24T10:16:49.600Z,15.30
2018-06-24T10:19:18.082Z,15.30
2018-06-24T10:21:46.606Z,15.30
2018-06-24T10:24:15.107Z,15.30
2018-06-24T10:26:43.586Z,15.40
2018-06-24T10:29:12.128Z,15.50
2018-06-24T10:31:40.566Z,15.60
2018-06-24T10:34:09.031Z,15.60
2018-06-24T10:36:37.499Z,15.70
2018-06-24T10:39:09.053Z,15.60
2018-06-24T10:41:37.552Z,15.60
2018-06-24T10:46:34.366Z,15.50
2018-06-24T10:49:03.882Z,15.40
2018-06-24T10:51:32.398Z,15.30
2018-06-24T10:54:00.948Z,15.30
2018-06-24T10:56:29.852Z,15.20
2018-06-24T10:58:58.364Z,15.20
2018-06-24T11:01:26.906Z,15.20
2018-06-24T11:03:55.364Z,15.30
2018-06-24T11:06:23.958Z,15.40
2018-06-24T11:08:52.425Z,15.50
2018-06-24T11:13:49.167Z,16.00
2018-06-24T11:16:17.743Z,16.10
2018-06-24T11:18:46.210Z,16.20
2018-06-24T11:21:14.722Z,16.20
2018-06-24T11:23:43.195Z,16.30
2018-06-24T11:26:11.667Z,16.30
2018-06-24T11:28:40.133Z,16.40
2018-06-24T11:31:09.329Z,16.40
2018-06-24T11:33:37.798Z,16.60
2018-06-24T11:38:34.442Z,16.90
2018-06-24T11:41:02.910Z,16.90
2018-06-24T11:43:31.400Z,16.80
2018-06-24T11:45:59.992Z,16.80
2018-06-24T11:48:28.460Z,16.70
2018-06-24T11:50:59.364Z,16.60
2018-06-24T11:53:29.007Z,16.50
2018-06-24T11:55:57.524Z,16.60
2018-06-24T11:58:26.020Z,16.70
2018-06-24T12:03:22.714Z,17.00
2018-06-24T12:05:51.360Z,17.10
2018-06-24T12:08:19.912Z,17.00
2018-06-24T12:10:48.383Z,17.00
2018-06-24T12:13:16.883Z,17.00
2018-06-24T12:15:45.359Z,16.90
2018-06-24T12:18:13.929Z,17.00
2018-06-24T12:20:42.390Z,17.00
2018-06-24T12:23:10.844Z,17.10
2018-06-24T12:25:39.338Z,17.10
2018-06-24T12:28:07.908Z,17.10
2018-06-24T12:30:36.554Z,17.10
2018-06-24T12:33:05.181Z,17.20
2018-06-24T12:35:34.072Z,17.10
2018-06-24T12:38:02.562Z,17.10
2018-06-24T12:40:31.041Z,17.00
2018-06-24T12:43:00.463Z,16.90
2018-06-24T12:45:29.343Z,16.90
2018-06-24T12:47:59.628Z,16.80
2018-06-24T12:52:56.842Z,16.60
2018-06-24T12:55:25.387Z,16.50
2018-06-24T13:00:22.861Z,16.40
2018-06-24T13:02:51.111Z,16.30
2018-06-24T13:05:19.607Z,16.30
2018-06-24T13:07:48.129Z,16.40
2018-06-24T13:12:44.828Z,16.40
2018-06-24T13:15:13.300Z,16.40
2018-06-24T13:17:41.815Z,16.40
2018-06-24T13:20:10.328Z,16.40
2018-06-24T13:22:38.824Z,16.40
2018-06-24T13:25:07.324Z,16.40
2018-06-24T13:27:35.843Z,16.40
2018-06-24T13:30:04.862Z,16.30
2018-06-24T13:32:33.390Z,16.30
2018-06-24T13:37:30.077Z,16.20
2018-06-24T13:39:58.580Z,16.10
2018-06-24T13:42:27.113Z,16.10
2018-06-24T13:44:55.658Z,16.00
2018-06-24T13:47:24.208Z,15.90
2018-06-24T13:54:49.070Z,15.80
2018-06-24T13:57:17.634Z,15.80
2018-06-24T14:02:14.380Z,16.10
2018-06-24T14:04:42.920Z,16.20
2018-06-24T14:07:11.435Z,16.40
2018-06-24T14:09:39.957Z,16.60
2018-06-24T14:12:08.435Z,16.70
2018-06-24T14:17:05.252Z,16.80
2018-06-24T14:19:33.763Z,16.80
2018-06-24T14:22:02.325Z,16.70
2018-06-24T14:24:30.835Z,16.70
2018-06-24T14:26:59.306Z,16.50
2018-06-24T14:29:28.299Z,16.50
2018-06-24T14:31:56.843Z,16.40
2018-06-24T14:36:53.534Z,16.20
2018-06-24T14:39:22.003Z,16.20
2018-06-24T14:46:46.827Z,16.20
2018-06-24T14:49:15.312Z,16.10
2018-06-24T14:51:43.749Z,16.10
2018-06-24T14:54:12.271Z,16.10
2018-06-24T14:56:40.729Z,16.00
2018-06-24T14:59:09.271Z,16.00
2018-06-24T15:04:06.054Z,15.90
2018-06-24T15:06:34.576Z,15.90
2018-06-24T15:09:03.127Z,15.90
2018-06-24T15:11:31.576Z,15.90
2018-06-24T15:14:00.119Z,15.90
2018-06-24T15:16:28.680Z,16.00
2018-06-24T15:18:57.139Z,16.00
2018-06-24T15:21:25.598Z,16.10
2018-06-24T15:23:54.079Z,16.10
2018-06-24T15:26:22.539Z,16.20
2018-06-24T15:28:51.004Z,16.10
2018-06-24T15:31:19.552Z,16.10
2018-06-24T15:33:48.012Z,16.20
2018-06-24T15:36:16.558Z,16.10
2018-06-24T15:38:45.016Z,16.10
2018-06-24T15:41:13.529Z,16.10
2018-06-24T15:46:11.417Z,16.00
2018-06-24T15:48:44.097Z,16.00
2018-06-24T15:53:41.927Z,15.80
2018-06-24T15:56:10.428Z,15.80
2018-06-24T15:58:38.990Z,15.80
2018-06-24T16:01:07.558Z,15.90
2018-06-24T16:03:36.634Z,15.90
2018-06-24T16:06:05.426Z,15.90
2018-06-24T16:08:34.070Z,15.90
2018-06-24T16:11:02.551Z,16.00
2018-06-24T16:13:31.029Z,15.90
2018-06-24T16:15:59.473Z,15.90
2018-06-24T16:18:27.982Z,15.90
2018-06-24T16:20:57.541Z,15.80
2018-06-24T16:23:25.885Z,15.80
2018-06-24T16:25:54.457Z,15.70
2018-06-24T16:30:51.235Z,15.70
2018-06-24T16:33:19.709Z,15.70
2018-06-24T16:40:44.641Z,15.60
2018-06-24T16:43:13.266Z,15.60
2018-06-24T16:45:41.746Z,15.60
2018-06-24T16:48:10.246Z,15.60
2018-06-24T16:50:38.706Z,15.60
2018-06-24T16:53:07.269Z,15.60
2018-06-24T16:55:36.137Z,15.60
2018-06-24T16:58:04.861Z,15.60
2018-06-24T17:00:33.328Z,15.60
2018-06-24T17:03:02.014Z,15.60
2018-06-24T17:07:58.903Z,15.60
2018-06-24T17:10:27.455Z,15.60
2018-06-24T17:12:56.024Z,15.60
2018-06-24T17:15:24.643Z,15.60
2018-06-24T17:17:53.507Z,15.60
2018-06-24T17:20:22.000Z,15.50
2018-06-24T17:22:50.609Z,15.50
2018-06-24T17:25:19.100Z,15.50
2018-06-24T17:27:47.622Z,15.50
2018-06-24T17:32:44.319Z,15.50
2018-06-24T17:35:12.852Z,15.50
2018-06-24T17:37:41.492Z,15.40
2018-06-24T17:40:09.978Z,15.40
2018-06-24T17:42:38.454Z,15.40
2018-06-24T17:45:07.006Z,15.40
2018-06-24T17:47:35.465Z,15.40
2018-06-24T17:50:04.095Z,15.40
2018-06-24T17:55:00.799Z,15.40
2018-06-24T17:57:29.310Z,15.40
2018-06-24T17:59:57.782Z,15.40
2018-06-24T18:02:26.386Z,15.40
2018-06-24T18:04:54.959Z,15.40
2018-06-24T18:07:23.393Z,15.40
2018-06-24T18:12:20.107Z,15.40
2018-06-24T18:14:48.586Z,15.40
2018-06-24T18:17:17.069Z,15.30
2018-06-24T18:19:45.536Z,15.30
2018-06-24T18:22:14.015Z,15.30
2018-06-24T18:24:42.504Z,15.40
2018-06-24T18:27:11.026Z,15.30
2018-06-24T18:29:39.508Z,15.40
2018-06-24T18:32:08.055Z,15.30
2018-06-24T18:34:36.527Z,15.40
2018-06-24T18:39:33.169Z,15.30
2018-06-24T18:42:01.654Z,15.30
2018-06-24T18:44:30.240Z,15.30
2018-06-24T18:46:58.702Z,15.30
2018-06-24T18:49:27.169Z,15.30
2018-06-24T18:51:55.694Z,15.30
2018-06-24T18:54:24.166Z,15.30
2018-06-24T18:56:52.777Z,15.30
2018-06-24T18:59:21.215Z,15.30
2018-06-24T19:01:49.710Z,15.20
2018-06-24T19:04:18.293Z,15.20
2018-06-24T19:06:46.807Z,15.20
2018-06-24T19:09:15.261Z,15.20
2018-06-24T19:11:44.156Z,15.10
2018-06-24T19:14:12.589Z,15.10
2018-06-24T19:16:41.569Z,15.10
2018-06-24T19:19:10.151Z,15.10
2018-06-24T19:21:38.691Z,15.10
2018-06-24T19:24:07.127Z,15.00
2018-06-24T19:26:35.602Z,15.00
2018-06-24T19:29:04.061Z,15.00
2018-06-24T19:31:32.529Z,15.00
2018-06-24T19:34:00.985Z,14.90
2018-06-24T19:36:29.751Z,14.90
2018-06-24T19:38:58.196Z,14.90
2018-06-24T19:41:26.653Z,14.80
2018-06-24T19:43:55.126Z,14.80
2018-06-24T19:46:23.714Z,14.80
2018-06-24T19:48:52.141Z,14.70
2018-06-24T19:51:20.578Z,14.70
2018-06-24T19:53:49.088Z,14.70
2018-06-24T19:58:45.791Z,14.60
2018-06-24T20:01:14.238Z,14.60
2018-06-24T20:03:42.775Z,14.60
2018-06-24T20:06:11.243Z,14.50
2018-06-24T20:08:39.786Z,14.50
2018-06-24T20:11:08.264Z,14.50
2018-06-24T20:13:36.803Z,14.50
2018-06-24T20:16:05.244Z,14.50
2018-06-24T20:18:33.758Z,14.40
2018-06-24T20:21:02.239Z,14.40
2018-06-24T20:25:58.931Z,14.40
2018-06-24T20:28:27.402Z,14.40
2018-06-24T20:30:55.909Z,14.30
2018-06-24T20:33:24.410Z,14.30
2018-06-24T20:35:52.894Z,14.30
2018-06-24T20:38:21.361Z,14.20
2018-06-24T20:40:49.862Z,14.20
2018-06-24T20:43:18.302Z,14.20
2018-06-24T20:45:46.772Z,14.20
2018-06-24T20:48:15.279Z,14.10
2018-06-24T20:50:43.798Z,14.10
2018-06-24T20:53:12.207Z,14.00
2018-06-24T20:55:40.763Z,14.00
2018-06-24T20:58:09.211Z,13.90
2018-06-24T21:00:37.697Z,13.90
2018-06-24T21:05:34.335Z,13.80
2018-06-24T21:08:02.772Z,13.80
2018-06-24T21:10:31.316Z,13.70
2018-06-24T21:12:59.882Z,13.70
2018-06-24T21:15:28.371Z,13.60
2018-06-24T21:17:56.959Z,13.60
2018-06-24T21:20:25.440Z,13.50
2018-06-24T21:22:53.901Z,13.50
2018-06-24T21:25:22.473Z,13.50
2018-06-24T21:27:50.942Z,13.40
2018-06-24T21:32:47.560Z,13.30
2018-06-24T21:35:16.063Z,13.30
2018-06-24T21:37:44.551Z,13.30
2018-06-24T21:40:13.022Z,13.30
2018-06-24T21:42:41.511Z,13.20
2018-06-24T21:45:09.987Z,13.20
2018-06-24T21:47:38.459Z,13.10
2018-06-24T21:50:06.931Z,13.10
2018-06-24T21:52:35.378Z,13.10
2018-06-24T21:57:32.011Z,13.10
2018-06-24T22:00:00.467Z,13.00
2018-06-24T22:02:28.969Z,13.10
2018-06-24T22:04:57.435Z,13.10
2018-06-24T22:07:25.921Z,13.10
2018-06-24T22:09:54.360Z,13.20
2018-06-24T22:12:22.824Z,13.20
2018-06-24T22:14:51.278Z,13.30
2018-06-24T22:17:19.932Z,13.30
2018-06-24T22:24:44.984Z,13.40
2018-06-24T22:27:13.581Z,13.50
2018-06-24T22:29:42.220Z,13.50
2018-06-24T22:32:10.794Z,13.60
2018-06-24T22:34:39.271Z,13.60
2018-06-24T22:37:07.821Z,13.60
2018-06-24T22:39:36.484Z,13.70
2018-06-24T22:42:04.947Z,13.70
2018-06-24T22:44:33.618Z,13.60
2018-06-24T22:49:30.559Z,13.70
2018-06-24T22:51:59.139Z,13.70
2018-06-24T22:54:27.654Z,13.70
2018-06-24T22:56:56.131Z,13.70
2018-06-24T22:59:35.745Z,13.70
2018-06-24T23:02:04.376Z,13.70
2018-06-24T23:04:32.985Z,13.70
2018-06-24T23:07:01.633Z,13.80
2018-06-24T23:09:30.196Z,13.70
2018-06-24T23:11:58.678Z,13.70
2018-06-24T23:14:27.134Z,13.70
2018-06-24T23:16:55.702Z,13.70
2018-06-24T23:19:24.387Z,13.80
2018-06-24T23:21:52.931Z,13.80
2018-06-24T23:24:21.428Z,13.80
2018-06-24T23:29:18.117Z,13.80
2018-06-24T23:31:46.663Z,13.80
2018-06-24T23:34:15.214Z,13.80
2018-06-24T23:36:43.797Z,13.80
2018-06-24T23:39:12.370Z,13.80
2018-06-24T23:41:40.885Z,13.80
2018-06-24T23:44:09.352Z,13.80
2018-06-24T23:46:37.942Z,13.90
2018-06-24T23:49:06.474Z,13.90
2018-06-24T23:51:34.969Z,13.90
2018-06-24T23:56:31.760Z,13.90
2018-06-24T23:59:00.379Z,13.90
